sensor_id;sensor_type;location;lat;lon;timestamp;P1;durP1;ratioP1;P2;durP2;ratioP2
12635;SDS011;6383;50.830;7.210;2022-10-16T00:00:45;3.83;;;2.17;;
12635;SDS011;6383;50.830;7.210;2022-10-16T00:03:14;10.45;;;2.10;;
12635;SDS011;6383;50.830;7.210;2022-10-16T00:05:44;7.00;;;1.90;;
12635;SDS011;6383;50.830;7.210;2022-10-16T00:08:12;3.95;;;1.80;;
12635;SDS011;6383;50.830;7.210;2022-10-16T00:10:40;7.43;;;1.52;;
12635;SDS011;6383;50.830;7.210;2022-10-16T00:13:09;5.25;;;2.42;;
12635;SDS011;6383;50.830;7.210;2022-10-16T00:15:38;12.82;;;2.75;;
12635;SDS011;6383;50.830;7.210;2022-10-16T00:18:07;12.10;;;2.03;;
12635;SDS011;6383;50.830;7.210;2022-10-16T00:20:35;13.45;;;2.28;;
12635;SDS011;6383;50.830;7.210;2022-10-16T00:23:04;4.90;;;1.95;;
12635;SDS011;6383;50.830;7.210;2022-10-16T00:25:38;2.58;;;1.88;;
12635;SDS011;6383;50.830;7.210;2022-10-16T00:28:09;5.30;;;2.00;;
12635;SDS011;6383;50.830;7.210;2022-10-16T00:30:39;4.43;;;1.92;;
12635;SDS011;6383;50.830;7.210;2022-10-16T00:33:08;8.93;;;2.38;;
12635;SDS011;6383;50.830;7.210;2022-10-16T00:35:40;4.03;;;1.90;;
12635;SDS011;6383;50.830;7.210;2022-10-16T00:38:12;7.82;;;2.15;;
12635;SDS011;6383;50.830;7.210;2022-10-16T00:40:41;7.95;;;1.92;;
12635;SDS011;6383;50.830;7.210;2022-10-16T00:43:13;3.55;;;1.75;;
12635;SDS011;6383;50.830;7.210;2022-10-16T00:46:01;7.90;;;2.25;;
12635;SDS011;6383;50.830;7.210;2022-10-16T00:48:32;4.78;;;2.30;;
12635;SDS011;6383;50.830;7.210;2022-10-16T00:51:02;6.15;;;1.92;;
12635;SDS011;6383;50.830;7.210;2022-10-16T00:53:34;9.98;;;2.55;;
12635;SDS011;6383;50.830;7.210;2022-10-16T00:56:03;3.17;;;1.70;;
12635;SDS011;6383;50.830;7.210;2022-10-16T00:58:32;4.28;;;2.05;;
12635;SDS011;6383;50.830;7.210;2022-10-16T01:01:07;5.78;;;2.20;;
12635;SDS011;6383;50.830;7.210;2022-10-16T01:03:36;5.55;;;1.55;;
12635;SDS011;6383;50.830;7.210;2022-10-16T01:06:09;4.45;;;2.15;;
12635;SDS011;6383;50.830;7.210;2022-10-16T01:09:02;6.63;;;2.10;;
12635;SDS011;6383;50.830;7.210;2022-10-16T01:11:42;6.07;;;2.30;;
12635;SDS011;6383;50.830;7.210;2022-10-16T01:14:22;2.03;;;1.55;;
12635;SDS011;6383;50.830;7.210;2022-10-16T01:16:57;3.47;;;1.92;;
12635;SDS011;6383;50.830;7.210;2022-10-16T01:19:41;3.00;;;1.80;;
12635;SDS011;6383;50.830;7.210;2022-10-16T01:22:18;5.63;;;1.88;;
12635;SDS011;6383;50.830;7.210;2022-10-16T01:24:52;3.72;;;1.67;;
12635;SDS011;6383;50.830;7.210;2022-10-16T01:27:33;4.55;;;1.60;;
12635;SDS011;6383;50.830;7.210;2022-10-16T01:30:10;4.47;;;1.83;;
12635;SDS011;6383;50.830;7.210;2022-10-16T01:32:46;4.25;;;1.70;;
12635;SDS011;6383;50.830;7.210;2022-10-16T01:35:19;7.20;;;2.08;;
12635;SDS011;6383;50.830;7.210;2022-10-16T01:37:53;2.13;;;1.63;;
12635;SDS011;6383;50.830;7.210;2022-10-16T01:40:48;1.85;;;1.70;;
12635;SDS011;6383;50.830;7.210;2022-10-16T01:43:42;9.52;;;1.92;;
12635;SDS011;6383;50.830;7.210;2022-10-16T01:46:55;4.40;;;1.90;;
12635;SDS011;6383;50.830;7.210;2022-10-16T01:52:49;9.85;;;3.58;;
12635;SDS011;6383;50.830;7.210;2022-10-16T01:55:40;17.33;;;5.38;;
12635;SDS011;6383;50.830;7.210;2022-10-16T02:10:30;6.88;;;3.47;;
12635;SDS011;6383;50.830;7.210;2022-10-16T02:13:53;6.75;;;2.70;;
12635;SDS011;6383;50.830;7.210;2022-10-16T02:17:40;7.15;;;2.40;;
12635;SDS011;6383;50.830;7.210;2022-10-16T02:44:57;9.43;;;3.85;;
12635;SDS011;6383;50.830;7.210;2022-10-16T02:54:55;5.80;;;3.72;;
12635;SDS011;6383;50.830;7.210;2022-10-16T02:58:35;8.23;;;3.83;;
12635;SDS011;6383;50.830;7.210;2022-10-16T03:23:58;9.43;;;3.15;;
12635;SDS011;6383;50.830;7.210;2022-10-16T03:27:38;6.38;;;3.00;;
12635;SDS011;6383;50.830;7.210;2022-10-16T03:34:40;7.65;;;2.92;;
12635;SDS011;6383;50.830;7.210;2022-10-16T03:41:55;7.30;;;2.92;;
12635;SDS011;6383;50.830;7.210;2022-10-16T03:46:46;8.30;;;2.35;;
12635;SDS011;6383;50.830;7.210;2022-10-16T03:52:48;7.65;;;2.67;;
12635;SDS011;6383;50.830;7.210;2022-10-16T04:12:59;6.53;;;2.10;;
12635;SDS011;6383;50.830;7.210;2022-10-16T04:23:35;8.07;;;2.80;;
12635;SDS011;6383;50.830;7.210;2022-10-16T04:40:07;4.35;;;2.20;;
12635;SDS011;6383;50.830;7.210;2022-10-16T04:42:47;5.35;;;2.33;;
12635;SDS011;6383;50.830;7.210;2022-10-16T04:45:53;6.28;;;2.22;;
12635;SDS011;6383;50.830;7.210;2022-10-16T04:49:05;9.50;;;2.25;;
12635;SDS011;6383;50.830;7.210;2022-10-16T04:51:39;3.60;;;2.40;;
12635;SDS011;6383;50.830;7.210;2022-10-16T04:54:20;4.95;;;2.63;;
12635;SDS011;6383;50.830;7.210;2022-10-16T05:04:36;11.48;;;2.65;;
12635;SDS011;6383;50.830;7.210;2022-10-16T05:08:08;8.25;;;1.98;;
12635;SDS011;6383;50.830;7.210;2022-10-16T05:11:43;8.93;;;2.28;;
12635;SDS011;6383;50.830;7.210;2022-10-16T05:14:13;5.40;;;1.92;;
12635;SDS011;6383;50.830;7.210;2022-10-16T05:17:36;4.50;;;2.28;;
12635;SDS011;6383;50.830;7.210;2022-10-16T05:20:36;6.20;;;2.58;;
12635;SDS011;6383;50.830;7.210;2022-10-16T05:23:27;13.20;;;2.77;;
12635;SDS011;6383;50.830;7.210;2022-10-16T05:26:59;5.38;;;2.67;;
12635;SDS011;6383;50.830;7.210;2022-10-16T05:37:33;8.40;;;2.03;;
12635;SDS011;6383;50.830;7.210;2022-10-16T05:40:51;5.85;;;2.00;;
12635;SDS011;6383;50.830;7.210;2022-10-16T05:43:45;7.55;;;1.90;;
12635;SDS011;6383;50.830;7.210;2022-10-16T05:46:16;7.28;;;1.80;;
12635;SDS011;6383;50.830;7.210;2022-10-16T05:49:13;3.63;;;1.95;;
12635;SDS011;6383;50.830;7.210;2022-10-16T05:51:44;6.65;;;2.13;;
12635;SDS011;6383;50.830;7.210;2022-10-16T05:54:14;5.88;;;1.90;;
12635;SDS011;6383;50.830;7.210;2022-10-16T05:56:42;6.60;;;1.65;;
12635;SDS011;6383;50.830;7.210;2022-10-16T05:59:17;5.80;;;2.45;;
12635;SDS011;6383;50.830;7.210;2022-10-16T06:01:49;7.25;;;2.55;;
12635;SDS011;6383;50.830;7.210;2022-10-16T06:04:20;7.75;;;2.20;;
12635;SDS011;6383;50.830;7.210;2022-10-16T06:06:52;4.82;;;2.15;;
12635;SDS011;6383;50.830;7.210;2022-10-16T06:09:41;4.65;;;2.58;;
12635;SDS011;6383;50.830;7.210;2022-10-16T06:12:15;8.57;;;2.40;;
12635;SDS011;6383;50.830;7.210;2022-10-16T06:14:43;4.82;;;2.95;;
12635;SDS011;6383;50.830;7.210;2022-10-16T06:17:14;4.30;;;3.25;;
12635;SDS011;6383;50.830;7.210;2022-10-16T06:19:43;3.95;;;3.45;;
12635;SDS011;6383;50.830;7.210;2022-10-16T06:22:22;9.82;;;3.35;;
12635;SDS011;6383;50.830;7.210;2022-10-16T06:24:54;6.78;;;3.95;;
12635;SDS011;6383;50.830;7.210;2022-10-16T06:27:28;10.02;;;3.88;;
12635;SDS011;6383;50.830;7.210;2022-10-16T06:29:58;10.02;;;3.42;;
12635;SDS011;6383;50.830;7.210;2022-10-16T06:32:27;4.40;;;2.28;;
12635;SDS011;6383;50.830;7.210;2022-10-16T06:34:56;5.40;;;1.98;;
12635;SDS011;6383;50.830;7.210;2022-10-16T06:37:26;2.22;;;1.33;;
12635;SDS011;6383;50.830;7.210;2022-10-16T06:40:02;3.50;;;1.92;;
12635;SDS011;6383;50.830;7.210;2022-10-16T06:42:35;18.70;;;13.95;;
12635;SDS011;6383;50.830;7.210;2022-10-16T06:45:11;14.52;;;12.70;;
12635;SDS011;6383;50.830;7.210;2022-10-16T06:48:19;13.60;;;5.28;;
12635;SDS011;6383;50.830;7.210;2022-10-16T06:50:55;3.50;;;1.70;;
12635;SDS011;6383;50.830;7.210;2022-10-16T06:53:54;1.40;;;1.30;;
12635;SDS011;6383;50.830;7.210;2022-10-16T06:56:25;7.80;;;1.77;;
12635;SDS011;6383;50.830;7.210;2022-10-16T06:59:02;11.07;;;1.65;;
12635;SDS011;6383;50.830;7.210;2022-10-16T07:01:53;4.25;;;1.48;;
12635;SDS011;6383;50.830;7.210;2022-10-16T07:04:27;13.32;;;1.65;;
12635;SDS011;6383;50.830;7.210;2022-10-16T07:06:59;9.02;;;1.60;;
12635;SDS011;6383;50.830;7.210;2022-10-16T07:09:29;16.63;;;1.73;;
12635;SDS011;6383;50.830;7.210;2022-10-16T07:12:02;1.73;;;1.60;;
12635;SDS011;6383;50.830;7.210;2022-10-16T07:14:35;5.28;;;1.50;;
12635;SDS011;6383;50.830;7.210;2022-10-16T07:17:05;4.05;;;1.83;;
12635;SDS011;6383;50.830;7.210;2022-10-16T07:19:36;3.83;;;1.73;;
12635;SDS011;6383;50.830;7.210;2022-10-16T07:22:06;3.60;;;1.55;;
12635;SDS011;6383;50.830;7.210;2022-10-16T07:24:34;12.88;;;3.45;;
12635;SDS011;6383;50.830;7.210;2022-10-16T07:27:04;7.45;;;3.10;;
12635;SDS011;6383;50.830;7.210;2022-10-16T07:29:31;10.75;;;5.13;;
12635;SDS011;6383;50.830;7.210;2022-10-16T07:32:03;6.22;;;4.82;;
12635;SDS011;6383;50.830;7.210;2022-10-16T07:34:30;7.82;;;5.75;;
12635;SDS011;6383;50.830;7.210;2022-10-16T07:37:00;7.00;;;4.88;;
12635;SDS011;6383;50.830;7.210;2022-10-16T07:39:29;9.30;;;5.25;;
12635;SDS011;6383;50.830;7.210;2022-10-16T07:41:58;12.07;;;4.15;;
12635;SDS011;6383;50.830;7.210;2022-10-16T07:44:29;7.88;;;4.40;;
12635;SDS011;6383;50.830;7.210;2022-10-16T07:46:58;8.48;;;4.55;;
12635;SDS011;6383;50.830;7.210;2022-10-16T07:49:26;10.63;;;5.03;;
12635;SDS011;6383;50.830;7.210;2022-10-16T07:51:55;4.75;;;3.88;;
12635;SDS011;6383;50.830;7.210;2022-10-16T07:54:23;6.65;;;4.20;;
12635;SDS011;6383;50.830;7.210;2022-10-16T07:56:52;5.88;;;3.83;;
12635;SDS011;6383;50.830;7.210;2022-10-16T07:59:22;4.78;;;4.07;;
12635;SDS011;6383;50.830;7.210;2022-10-16T08:01:52;12.15;;;4.10;;
12635;SDS011;6383;50.830;7.210;2022-10-16T08:04:21;6.20;;;3.95;;
12635;SDS011;6383;50.830;7.210;2022-10-16T08:06:49;6.88;;;3.53;;
12635;SDS011;6383;50.830;7.210;2022-10-16T08:09:18;6.50;;;3.30;;
12635;SDS011;6383;50.830;7.210;2022-10-16T08:11:47;3.22;;;2.85;;
12635;SDS011;6383;50.830;7.210;2022-10-16T08:14:14;7.70;;;3.30;;
12635;SDS011;6383;50.830;7.210;2022-10-16T08:16:42;3.53;;;2.97;;
12635;SDS011;6383;50.830;7.210;2022-10-16T08:19:12;5.40;;;3.42;;
12635;SDS011;6383;50.830;7.210;2022-10-16T08:21:41;6.57;;;3.70;;
12635;SDS011;6383;50.830;7.210;2022-10-16T08:24:09;12.25;;;3.72;;
12635;SDS011;6383;50.830;7.210;2022-10-16T08:26:37;7.80;;;3.63;;
12635;SDS011;6383;50.830;7.210;2022-10-16T08:29:04;9.50;;;3.78;;
12635;SDS011;6383;50.830;7.210;2022-10-16T08:31:33;8.80;;;4.75;;
12635;SDS011;6383;50.830;7.210;2022-10-16T08:34:01;2.65;;;1.80;;
12635;SDS011;6383;50.830;7.210;2022-10-16T08:36:32;7.75;;;1.35;;
12635;SDS011;6383;50.830;7.210;2022-10-16T08:38:59;3.70;;;1.23;;
12635;SDS011;6383;50.830;7.210;2022-10-16T08:41:39;2.00;;;1.10;;
12635;SDS011;6383;50.830;7.210;2022-10-16T08:44:50;1.75;;;0.95;;
12635;SDS011;6383;50.830;7.210;2022-10-16T08:47:48;1.20;;;0.83;;
12635;SDS011;6383;50.830;7.210;2022-10-16T08:50:22;1.35;;;1.00;;
12635;SDS011;6383;50.830;7.210;2022-10-16T08:52:55;1.20;;;1.00;;
12635;SDS011;6383;50.830;7.210;2022-10-16T08:55:30;3.45;;;0.90;;
12635;SDS011;6383;50.830;7.210;2022-10-16T08:58:01;1.73;;;1.08;;
12635;SDS011;6383;50.830;7.210;2022-10-16T09:00:30;2.85;;;0.73;;
12635;SDS011;6383;50.830;7.210;2022-10-16T09:03:03;3.33;;;0.85;;
12635;SDS011;6383;50.830;7.210;2022-10-16T09:05:49;3.03;;;0.93;;
12635;SDS011;6383;50.830;7.210;2022-10-16T09:08:42;0.95;;;0.70;;
12635;SDS011;6383;50.830;7.210;2022-10-16T09:11:23;2.50;;;1.05;;
12635;SDS011;6383;50.830;7.210;2022-10-16T09:14:02;2.35;;;0.80;;
12635;SDS011;6383;50.830;7.210;2022-10-16T09:16:42;4.38;;;1.33;;
12635;SDS011;6383;50.830;7.210;2022-10-16T09:19:18;2.97;;;0.60;;
12635;SDS011;6383;50.830;7.210;2022-10-16T09:21:53;1.27;;;0.90;;
12635;SDS011;6383;50.830;7.210;2022-10-16T09:24:23;3.50;;;0.77;;
12635;SDS011;6383;50.830;7.210;2022-10-16T09:26:54;1.73;;;0.75;;
12635;SDS011;6383;50.830;7.210;2022-10-16T09:29:23;2.10;;;0.60;;
12635;SDS011;6383;50.830;7.210;2022-10-16T09:31:52;0.65;;;0.65;;
12635;SDS011;6383;50.830;7.210;2022-10-16T09:34:24;4.38;;;0.80;;
12635;SDS011;6383;50.830;7.210;2022-10-16T09:36:59;1.38;;;1.00;;
12635;SDS011;6383;50.830;7.210;2022-10-16T09:39:31;0.98;;;0.90;;
12635;SDS011;6383;50.830;7.210;2022-10-16T09:42:11;2.40;;;0.60;;
12635;SDS011;6383;50.830;7.210;2022-10-16T09:44:46;1.23;;;0.93;;
12635;SDS011;6383;50.830;7.210;2022-10-16T09:47:17;1.48;;;0.70;;
12635;SDS011;6383;50.830;7.210;2022-10-16T09:49:52;6.28;;;0.60;;
12635;SDS011;6383;50.830;7.210;2022-10-16T09:52:23;0.98;;;0.88;;
12635;SDS011;6383;50.830;7.210;2022-10-16T09:54:54;0.45;;;0.40;;
12635;SDS011;6383;50.830;7.210;2022-10-16T09:57:24;0.68;;;0.50;;
12635;SDS011;6383;50.830;7.210;2022-10-16T09:59:54;7.10;;;0.60;;
12635;SDS011;6383;50.830;7.210;2022-10-16T10:02:26;0.95;;;0.52;;
12635;SDS011;6383;50.830;7.210;2022-10-16T10:04:58;0.60;;;0.60;;
12635;SDS011;6383;50.830;7.210;2022-10-16T10:07:27;2.53;;;0.60;;
12635;SDS011;6383;50.830;7.210;2022-10-16T10:10:03;3.15;;;0.63;;
12635;SDS011;6383;50.830;7.210;2022-10-16T10:12:32;2.13;;;0.65;;
12635;SDS011;6383;50.830;7.210;2022-10-16T10:15:03;1.67;;;0.82;;
12635;SDS011;6383;50.830;7.210;2022-10-16T10:17:44;1.48;;;0.82;;
12635;SDS011;6383;50.830;7.210;2022-10-16T10:20:18;0.98;;;0.70;;
12635;SDS011;6383;50.830;7.210;2022-10-16T10:22:50;1.15;;;0.70;;
12635;SDS011;6383;50.830;7.210;2022-10-16T10:25:29;2.40;;;0.50;;
12635;SDS011;6383;50.830;7.210;2022-10-16T10:28:21;1.23;;;0.63;;
12635;SDS011;6383;50.830;7.210;2022-10-16T10:31:12;1.02;;;0.60;;
12635;SDS011;6383;50.830;7.210;2022-10-16T10:33:54;1.63;;;0.73;;
12635;SDS011;6383;50.830;7.210;2022-10-16T10:36:32;0.75;;;0.60;;
12635;SDS011;6383;50.830;7.210;2022-10-16T10:39:05;1.13;;;0.70;;
12635;SDS011;6383;50.830;7.210;2022-10-16T10:45:14;1.15;;;0.55;;
12635;SDS011;6383;50.830;7.210;2022-10-16T11:02:13;1.15;;;0.70;;
12635;SDS011;6383;50.830;7.210;2022-10-16T11:08:21;0.90;;;0.90;;
12635;SDS011;6383;50.830;7.210;2022-10-16T11:14:03;0.82;;;0.50;;
12635;SDS011;6383;50.830;7.210;2022-10-16T11:16:47;1.58;;;0.60;;
12635;SDS011;6383;50.830;7.210;2022-10-16T11:19:29;3.05;;;1.17;;
12635;SDS011;6383;50.830;7.210;2022-10-16T11:22:13;1.35;;;0.43;;
12635;SDS011;6383;50.830;7.210;2022-10-16T11:24:49;0.95;;;0.52;;
12635;SDS011;6383;50.830;7.210;2022-10-16T11:27:47;1.10;;;0.57;;
12635;SDS011;6383;50.830;7.210;2022-10-16T11:33:14;0.98;;;0.47;;
12635;SDS011;6383;50.830;7.210;2022-10-16T11:35:53;2.92;;;0.50;;
12635;SDS011;6383;50.830;7.210;2022-10-16T11:38:34;2.17;;;0.80;;
12635;SDS011;6383;50.830;7.210;2022-10-16T11:41:13;2.10;;;0.70;;
12635;SDS011;6383;50.830;7.210;2022-10-16T11:43:52;2.13;;;0.80;;
12635;SDS011;6383;50.830;7.210;2022-10-16T11:46:33;1.85;;;1.10;;
12635;SDS011;6383;50.830;7.210;2022-10-16T11:49:11;4.45;;;1.20;;
12635;SDS011;6383;50.830;7.210;2022-10-16T11:51:53;1.10;;;1.10;;
12635;SDS011;6383;50.830;7.210;2022-10-16T11:54:35;2.35;;;1.23;;
12635;SDS011;6383;50.830;7.210;2022-10-16T11:57:10;4.53;;;2.28;;
12635;SDS011;6383;50.830;7.210;2022-10-16T11:59:45;1.35;;;0.88;;
12635;SDS011;6383;50.830;7.210;2022-10-16T12:05:19;0.65;;;0.40;;
12635;SDS011;6383;50.830;7.210;2022-10-16T12:08:06;5.75;;;0.60;;
12635;SDS011;6383;50.830;7.210;2022-10-16T12:10:39;1.65;;;0.40;;
12635;SDS011;6383;50.830;7.210;2022-10-16T12:13:29;1.10;;;0.55;;
12635;SDS011;6383;50.830;7.210;2022-10-16T12:16:05;1.33;;;0.50;;
12635;SDS011;6383;50.830;7.210;2022-10-16T12:18:48;0.52;;;0.43;;
12635;SDS011;6383;50.830;7.210;2022-10-16T12:21:40;0.95;;;0.60;;
12635;SDS011;6383;50.830;7.210;2022-10-16T12:24:20;0.65;;;0.38;;
12635;SDS011;6383;50.830;7.210;2022-10-16T12:27:19;0.63;;;0.40;;
12635;SDS011;6383;50.830;7.210;2022-10-16T12:30:34;1.70;;;0.60;;
12635;SDS011;6383;50.830;7.210;2022-10-16T12:33:19;1.10;;;0.63;;
12635;SDS011;6383;50.830;7.210;2022-10-16T12:36:27;1.48;;;0.50;;
12635;SDS011;6383;50.830;7.210;2022-10-16T12:38:59;3.20;;;0.40;;
12635;SDS011;6383;50.830;7.210;2022-10-16T12:41:35;3.72;;;0.52;;
12635;SDS011;6383;50.830;7.210;2022-10-16T12:47:19;1.60;;;0.40;;
12635;SDS011;6383;50.830;7.210;2022-10-16T12:49:53;1.10;;;0.50;;
12635;SDS011;6383;50.830;7.210;2022-10-16T12:52:36;1.35;;;0.50;;
12635;SDS011;6383;50.830;7.210;2022-10-16T12:55:12;2.75;;;0.47;;
12635;SDS011;6383;50.830;7.210;2022-10-16T12:57:48;1.30;;;0.50;;
12635;SDS011;6383;50.830;7.210;2022-10-16T13:00:40;8.27;;;0.73;;
12635;SDS011;6383;50.830;7.210;2022-10-16T13:09:04;5.38;;;0.40;;
12635;SDS011;6383;50.830;7.210;2022-10-16T13:11:52;0.30;;;0.30;;
12635;SDS011;6383;50.830;7.210;2022-10-16T13:14:43;0.65;;;0.40;;
12635;SDS011;6383;50.830;7.210;2022-10-16T13:17:38;0.60;;;0.60;;
12635;SDS011;6383;50.830;7.210;2022-10-16T13:20:17;1.90;;;0.45;;
12635;SDS011;6383;50.830;7.210;2022-10-16T13:22:51;2.53;;;0.50;;
12635;SDS011;6383;50.830;7.210;2022-10-16T13:25:33;3.90;;;0.73;;
12635;SDS011;6383;50.830;7.210;2022-10-16T13:28:11;1.27;;;0.35;;
12635;SDS011;6383;50.830;7.210;2022-10-16T13:30:41;2.22;;;0.40;;
12635;SDS011;6383;50.830;7.210;2022-10-16T13:33:13;4.05;;;0.28;;
12635;SDS011;6383;50.830;7.210;2022-10-16T13:35:48;4.28;;;0.43;;
12635;SDS011;6383;50.830;7.210;2022-10-16T13:38:18;2.53;;;0.50;;
12635;SDS011;6383;50.830;7.210;2022-10-16T13:40:50;0.95;;;0.40;;
12635;SDS011;6383;50.830;7.210;2022-10-16T13:43:21;2.10;;;0.50;;
12635;SDS011;6383;50.830;7.210;2022-10-16T13:45:59;1.42;;;0.68;;
12635;SDS011;6383;50.830;7.210;2022-10-16T13:48:30;0.98;;;0.28;;
12635;SDS011;6383;50.830;7.210;2022-10-16T13:51:03;2.17;;;0.63;;
12635;SDS011;6383;50.830;7.210;2022-10-16T13:53:34;0.93;;;0.38;;
12635;SDS011;6383;50.830;7.210;2022-10-16T13:56:06;2.55;;;0.50;;
12635;SDS011;6383;50.830;7.210;2022-10-16T13:58:36;2.00;;;0.50;;
12635;SDS011;6383;50.830;7.210;2022-10-16T14:01:05;2.63;;;0.40;;
12635;SDS011;6383;50.830;7.210;2022-10-16T14:03:42;1.65;;;0.50;;
12635;SDS011;6383;50.830;7.210;2022-10-16T14:06:13;0.75;;;0.40;;
12635;SDS011;6383;50.830;7.210;2022-10-16T14:08:46;2.40;;;0.47;;
12635;SDS011;6383;50.830;7.210;2022-10-16T14:13:51;4.57;;;0.55;;
12635;SDS011;6383;50.830;7.210;2022-10-16T14:16:21;1.77;;;0.50;;
12635;SDS011;6383;50.830;7.210;2022-10-16T14:18:56;1.05;;;0.40;;
12635;SDS011;6383;50.830;7.210;2022-10-16T14:21:29;5.05;;;0.60;;
12635;SDS011;6383;50.830;7.210;2022-10-16T14:23:59;3.00;;;0.52;;
12635;SDS011;6383;50.830;7.210;2022-10-16T14:26:42;1.58;;;0.70;;
12635;SDS011;6383;50.830;7.210;2022-10-16T14:29:12;0.38;;;0.38;;
12635;SDS011;6383;50.830;7.210;2022-10-16T14:31:53;0.88;;;0.50;;
12635;SDS011;6383;50.830;7.210;2022-10-16T14:34:23;0.75;;;0.45;;
12635;SDS011;6383;50.830;7.210;2022-10-16T14:36:55;5.05;;;1.20;;
12635;SDS011;6383;50.830;7.210;2022-10-16T14:39:24;2.40;;;0.80;;
12635;SDS011;6383;50.830;7.210;2022-10-16T14:41:56;1.85;;;1.50;;
12635;SDS011;6383;50.830;7.210;2022-10-16T14:44:28;5.05;;;1.98;;
12635;SDS011;6383;50.830;7.210;2022-10-16T14:47:05;5.25;;;2.67;;
12635;SDS011;6383;50.830;7.210;2022-10-16T14:49:36;9.68;;;4.15;;
12635;SDS011;6383;50.830;7.210;2022-10-16T14:52:08;4.28;;;3.05;;
12635;SDS011;6383;50.830;7.210;2022-10-16T14:54:39;3.55;;;2.80;;
12635;SDS011;6383;50.830;7.210;2022-10-16T14:57:15;4.65;;;2.90;;
12635;SDS011;6383;50.830;7.210;2022-10-16T14:59:44;6.75;;;3.90;;
12635;SDS011;6383;50.830;7.210;2022-10-16T15:02:16;6.43;;;4.32;;
12635;SDS011;6383;50.830;7.210;2022-10-16T15:04:51;1.73;;;1.02;;
12635;SDS011;6383;50.830;7.210;2022-10-16T15:07:20;2.40;;;1.13;;
12635;SDS011;6383;50.830;7.210;2022-10-16T15:09:48;2.80;;;1.70;;
12635;SDS011;6383;50.830;7.210;2022-10-16T15:12:19;3.17;;;2.83;;
12635;SDS011;6383;50.830;7.210;2022-10-16T15:14:47;11.27;;;3.97;;
12635;SDS011;6383;50.830;7.210;2022-10-16T15:17:14;8.68;;;4.97;;
12635;SDS011;6383;50.830;7.210;2022-10-16T15:19:43;2.38;;;2.17;;
12635;SDS011;6383;50.830;7.210;2022-10-16T15:22:13;1.60;;;1.20;;
12635;SDS011;6383;50.830;7.210;2022-10-16T15:24:40;4.70;;;1.00;;
12635;SDS011;6383;50.830;7.210;2022-10-16T15:27:10;1.75;;;0.88;;
12635;SDS011;6383;50.830;7.210;2022-10-16T15:29:40;0.80;;;0.70;;
12635;SDS011;6383;50.830;7.210;2022-10-16T15:32:10;1.20;;;0.50;;
12635;SDS011;6383;50.830;7.210;2022-10-16T15:34:39;1.17;;;0.65;;
12635;SDS011;6383;50.830;7.210;2022-10-16T15:37:08;1.17;;;0.80;;
12635;SDS011;6383;50.830;7.210;2022-10-16T15:39:38;1.80;;;1.02;;
12635;SDS011;6383;50.830;7.210;2022-10-16T15:42:06;1.10;;;0.82;;
12635;SDS011;6383;50.830;7.210;2022-10-16T15:44:33;1.20;;;1.20;;
12635;SDS011;6383;50.830;7.210;2022-10-16T15:47:03;2.75;;;1.40;;
12635;SDS011;6383;50.830;7.210;2022-10-16T15:49:31;14.43;;;1.48;;
12635;SDS011;6383;50.830;7.210;2022-10-16T15:51:59;5.47;;;1.10;;
12635;SDS011;6383;50.830;7.210;2022-10-16T15:54:29;4.63;;;1.10;;
12635;SDS011;6383;50.830;7.210;2022-10-16T15:56:57;1.48;;;1.00;;
12635;SDS011;6383;50.830;7.210;2022-10-16T15:59:26;4.60;;;1.00;;
12635;SDS011;6383;50.830;7.210;2022-10-16T16:01:53;2.00;;;0.90;;
12635;SDS011;6383;50.830;7.210;2022-10-16T16:04:23;2.20;;;1.60;;
12635;SDS011;6383;50.830;7.210;2022-10-16T16:06:52;4.78;;;1.40;;
12635;SDS011;6383;50.830;7.210;2022-10-16T16:09:21;2.33;;;2.10;;
12635;SDS011;6383;50.830;7.210;2022-10-16T16:11:50;5.18;;;2.40;;
12635;SDS011;6383;50.830;7.210;2022-10-16T16:14:20;4.35;;;2.60;;
12635;SDS011;6383;50.830;7.210;2022-10-16T16:16:47;5.25;;;1.80;;
12635;SDS011;6383;50.830;7.210;2022-10-16T16:19:15;2.45;;;1.00;;
12635;SDS011;6383;50.830;7.210;2022-10-16T16:21:49;2.33;;;0.82;;
12635;SDS011;6383;50.830;7.210;2022-10-16T16:24:19;1.75;;;0.80;;
12635;SDS011;6383;50.830;7.210;2022-10-16T16:26:46;1.85;;;0.88;;
12635;SDS011;6383;50.830;7.210;2022-10-16T16:29:16;3.78;;;0.90;;
12635;SDS011;6383;50.830;7.210;2022-10-16T16:31:43;2.45;;;0.85;;
12635;SDS011;6383;50.830;7.210;2022-10-16T16:34:14;1.25;;;1.13;;
12635;SDS011;6383;50.830;7.210;2022-10-16T16:36:43;1.30;;;0.90;;
12635;SDS011;6383;50.830;7.210;2022-10-16T16:39:12;4.35;;;1.40;;
12635;SDS011;6383;50.830;7.210;2022-10-16T16:41:41;1.55;;;0.90;;
12635;SDS011;6383;50.830;7.210;2022-10-16T16:44:10;3.03;;;0.90;;
12635;SDS011;6383;50.830;7.210;2022-10-16T16:46:40;2.22;;;0.80;;
12635;SDS011;6383;50.830;7.210;2022-10-16T16:49:13;0.90;;;0.82;;
12635;SDS011;6383;50.830;7.210;2022-10-16T16:51:41;3.58;;;1.00;;
12635;SDS011;6383;50.830;7.210;2022-10-16T16:54:09;1.00;;;0.90;;
12635;SDS011;6383;50.830;7.210;2022-10-16T16:56:41;3.40;;;1.58;;
12635;SDS011;6383;50.830;7.210;2022-10-16T16:59:11;1.98;;;1.77;;
12635;SDS011;6383;50.830;7.210;2022-10-16T17:01:42;6.47;;;3.50;;
12635;SDS011;6383;50.830;7.210;2022-10-16T17:04:11;1.90;;;1.80;;
12635;SDS011;6383;50.830;7.210;2022-10-16T17:06:42;2.30;;;1.63;;
12635;SDS011;6383;50.830;7.210;2022-10-16T17:09:10;1.70;;;0.77;;
12635;SDS011;6383;50.830;7.210;2022-10-16T17:11:42;8.23;;;3.70;;
12635;SDS011;6383;50.830;7.210;2022-10-16T17:14:13;4.10;;;2.08;;
12635;SDS011;6383;50.830;7.210;2022-10-16T17:16:43;1.25;;;1.17;;
12635;SDS011;6383;50.830;7.210;2022-10-16T17:19:13;0.70;;;0.70;;
12635;SDS011;6383;50.830;7.210;2022-10-16T17:21:43;2.08;;;0.80;;
12635;SDS011;6383;50.830;7.210;2022-10-16T17:24:11;1.60;;;0.68;;
12635;SDS011;6383;50.830;7.210;2022-10-16T17:26:41;1.58;;;1.13;;
12635;SDS011;6383;50.830;7.210;2022-10-16T17:29:15;7.68;;;0.68;;
12635;SDS011;6383;50.830;7.210;2022-10-16T17:31:45;1.85;;;0.82;;
12635;SDS011;6383;50.830;7.210;2022-10-16T17:34:15;3.00;;;0.68;;
12635;SDS011;6383;50.830;7.210;2022-10-16T17:36:44;4.22;;;1.13;;
12635;SDS011;6383;50.830;7.210;2022-10-16T17:39:16;1.27;;;0.82;;
12635;SDS011;6383;50.830;7.210;2022-10-16T17:41:46;3.17;;;1.05;;
12635;SDS011;6383;50.830;7.210;2022-10-16T17:44:16;2.80;;;0.88;;
12635;SDS011;6383;50.830;7.210;2022-10-16T17:46:48;6.00;;;5.40;;
12635;SDS011;6383;50.830;7.210;2022-10-16T17:49:19;3.20;;;1.58;;
12635;SDS011;6383;50.830;7.210;2022-10-16T17:51:49;1.60;;;1.02;;
12635;SDS011;6383;50.830;7.210;2022-10-16T17:54:19;1.13;;;0.70;;
12635;SDS011;6383;50.830;7.210;2022-10-16T17:56:49;3.75;;;1.75;;
12635;SDS011;6383;50.830;7.210;2022-10-16T17:59:17;2.92;;;1.00;;
12635;SDS011;6383;50.830;7.210;2022-10-16T18:01:49;4.80;;;1.38;;
12635;SDS011;6383;50.830;7.210;2022-10-16T18:04:18;4.30;;;1.00;;
12635;SDS011;6383;50.830;7.210;2022-10-16T18:06:45;1.10;;;1.00;;
12635;SDS011;6383;50.830;7.210;2022-10-16T18:09:14;1.42;;;1.30;;
12635;SDS011;6383;50.830;7.210;2022-10-16T18:11:44;4.05;;;1.42;;
12635;SDS011;6383;50.830;7.210;2022-10-16T18:14:13;2.22;;;1.17;;
12635;SDS011;6383;50.830;7.210;2022-10-16T18:16:44;1.48;;;1.27;;
12635;SDS011;6383;50.830;7.210;2022-10-16T18:19:12;2.28;;;1.23;;
12635;SDS011;6383;50.830;7.210;2022-10-16T18:21:40;2.92;;;1.95;;
12635;SDS011;6383;50.830;7.210;2022-10-16T18:24:08;5.25;;;2.40;;
12635;SDS011;6383;50.830;7.210;2022-10-16T18:26:36;1.85;;;1.70;;
12635;SDS011;6383;50.830;7.210;2022-10-16T18:29:04;1.35;;;1.10;;
12635;SDS011;6383;50.830;7.210;2022-10-16T18:31:33;5.50;;;1.58;;
12635;SDS011;6383;50.830;7.210;2022-10-16T18:34:00;2.90;;;1.20;;
12635;SDS011;6383;50.830;7.210;2022-10-16T18:36:31;0.98;;;0.88;;
12635;SDS011;6383;50.830;7.210;2022-10-16T18:39:05;3.00;;;1.50;;
12635;SDS011;6383;50.830;7.210;2022-10-16T18:41:34;2.00;;;1.45;;
12635;SDS011;6383;50.830;7.210;2022-10-16T18:44:04;1.00;;;1.00;;
12635;SDS011;6383;50.830;7.210;2022-10-16T18:46:35;4.68;;;1.10;;
12635;SDS011;6383;50.830;7.210;2022-10-16T18:49:04;4.38;;;1.20;;
12635;SDS011;6383;50.830;7.210;2022-10-16T18:51:34;5.68;;;5.07;;
12635;SDS011;6383;50.830;7.210;2022-10-16T18:54:06;5.85;;;4.32;;